sensor_id;sensor_type;location;lat;lon;timestamp;P1;durP1;ratioP1;P2;durP2;ratioP2
65613;SDS011;52283;49.292;10.572;2022-12-07T00:02:22;17.02;;;9.95;;
65613;SDS011;52283;49.292;10.572;2022-12-07T00:04:49;14.38;;;9.77;;
65613;SDS011;52283;49.292;10.572;2022-12-07T00:07:17;15.63;;;9.00;;
65613;SDS011;52283;49.292;10.572;2022-12-07T00:09:43;17.67;;;10.45;;
65613;SDS011;52283;49.292;10.572;2022-12-07T00:12:10;15.38;;;9.50;;
65613;SDS011;52283;49.292;10.572;2022-12-07T00:14:36;17.05;;;10.27;;
65613;SDS011;52283;49.292;10.572;2022-12-07T00:17:02;21.33;;;11.20;;
65613;SDS011;52283;49.292;10.572;2022-12-07T00:19:29;14.98;;;8.93;;
65613;SDS011;52283;49.292;10.572;2022-12-07T00:21:55;15.23;;;9.23;;
65613;SDS011;52283;49.292;10.572;2022-12-07T00:24:23;15.50;;;9.55;;
65613;SDS011;52283;49.292;10.572;2022-12-07T00:26:50;16.52;;;9.57;;
65613;SDS011;52283;49.292;10.572;2022-12-07T00:29:18;18.75;;;9.93;;
65613;SDS011;52283;49.292;10.572;2022-12-07T00:31:46;20.15;;;11.20;;
65613;SDS011;52283;49.292;10.572;2022-12-07T00:34:13;17.42;;;10.32;;
65613;SDS011;52283;49.292;10.572;2022-12-07T00:36:41;14.70;;;9.07;;
65613;SDS011;52283;49.292;10.572;2022-12-07T00:39:07;16.60;;;11.23;;
65613;SDS011;52283;49.292;10.572;2022-12-07T00:41:35;19.23;;;10.18;;
65613;SDS011;52283;49.292;10.572;2022-12-07T00:44:02;20.02;;;10.93;;
65613;SDS011;52283;49.292;10.572;2022-12-07T00:46:29;21.73;;;10.02;;
65613;SDS011;52283;49.292;10.572;2022-12-07T00:48:56;20.38;;;11.48;;
65613;SDS011;52283;49.292;10.572;2022-12-07T00:51:23;17.17;;;10.02;;
65613;SDS011;52283;49.292;10.572;2022-12-07T00:53:51;16.42;;;9.93;;
65613;SDS011;52283;49.292;10.572;2022-12-07T00:56:18;22.70;;;11.38;;
65613;SDS011;52283;49.292;10.572;2022-12-07T00:58:50;21.83;;;11.32;;
65613;SDS011;52283;49.292;10.572;2022-12-07T01:03:43;21.45;;;11.52;;
65613;SDS011;52283;49.292;10.572;2022-12-07T01:06:13;22.60;;;11.43;;
65613;SDS011;52283;49.292;10.572;2022-12-07T01:08:40;20.42;;;10.45;;
65613;SDS011;52283;49.292;10.572;2022-12-07T01:11:07;20.15;;;10.80;;
65613;SDS011;52283;49.292;10.572;2022-12-07T01:13:35;24.60;;;13.63;;
65613;SDS011;52283;49.292;10.572;2022-12-07T01:16:04;20.60;;;10.88;;
65613;SDS011;52283;49.292;10.572;2022-12-07T01:18:32;20.63;;;10.13;;
65613;SDS011;52283;49.292;10.572;2022-12-07T01:21:01;18.58;;;10.27;;
65613;SDS011;52283;49.292;10.572;2022-12-07T01:23:29;19.45;;;10.98;;
65613;SDS011;52283;49.292;10.572;2022-12-07T01:25:56;20.98;;;10.88;;
65613;SDS011;52283;49.292;10.572;2022-12-07T01:28:23;23.23;;;11.20;;
65613;SDS011;52283;49.292;10.572;2022-12-07T01:30:57;21.33;;;11.48;;
65613;SDS011;52283;49.292;10.572;2022-12-07T01:33:27;24.52;;;12.40;;
65613;SDS011;52283;49.292;10.572;2022-12-07T01:35:55;21.63;;;11.65;;
65613;SDS011;52283;49.292;10.572;2022-12-07T01:38:27;21.70;;;12.02;;
65613;SDS011;52283;49.292;10.572;2022-12-07T01:40:54;21.73;;;11.52;;
65613;SDS011;52283;49.292;10.572;2022-12-07T01:43:21;24.42;;;11.88;;
65613;SDS011;52283;49.292;10.572;2022-12-07T01:45:50;25.48;;;12.43;;
65613;SDS011;52283;49.292;10.572;2022-12-07T01:48:17;23.25;;;12.23;;
65613;SDS011;52283;49.292;10.572;2022-12-07T01:50:50;23.88;;;12.63;;
65613;SDS011;52283;49.292;10.572;2022-12-07T01:53:18;24.00;;;12.75;;
65613;SDS011;52283;49.292;10.572;2022-12-07T01:55:45;26.00;;;12.75;;
65613;SDS011;52283;49.292;10.572;2022-12-07T01:58:15;23.17;;;11.27;;
65613;SDS011;52283;49.292;10.572;2022-12-07T02:00:42;29.58;;;13.48;;
65613;SDS011;52283;49.292;10.572;2022-12-07T02:03:10;22.42;;;11.85;;
65613;SDS011;52283;49.292;10.572;2022-12-07T02:05:42;25.20;;;11.60;;
65613;SDS011;52283;49.292;10.572;2022-12-07T02:08:10;24.02;;;12.02;;
65613;SDS011;52283;49.292;10.572;2022-12-07T02:10:38;26.90;;;12.38;;
65613;SDS011;52283;49.292;10.572;2022-12-07T02:13:08;25.17;;;13.90;;
65613;SDS011;52283;49.292;10.572;2022-12-07T02:18:52;22.85;;;12.10;;
65613;SDS011;52283;49.292;10.572;2022-12-07T02:21:29;22.10;;;11.55;;
65613;SDS011;52283;49.292;10.572;2022-12-07T02:27:17;23.85;;;11.77;;
65613;SDS011;52283;49.292;10.572;2022-12-07T02:29:58;26.48;;;12.50;;
65613;SDS011;52283;49.292;10.572;2022-12-07T02:32:27;26.40;;;13.13;;
65613;SDS011;52283;49.292;10.572;2022-12-07T02:35:07;23.95;;;12.10;;
65613;SDS011;52283;49.292;10.572;2022-12-07T02:37:39;27.13;;;13.15;;
65613;SDS011;52283;49.292;10.572;2022-12-07T02:40:10;27.70;;;13.02;;
65613;SDS011;52283;49.292;10.572;2022-12-07T02:42:42;30.33;;;13.82;;
65613;SDS011;52283;49.292;10.572;2022-12-07T02:45:15;28.85;;;12.88;;
65613;SDS011;52283;49.292;10.572;2022-12-07T02:47:44;26.13;;;11.57;;
65613;SDS011;52283;49.292;10.572;2022-12-07T02:50:14;25.75;;;12.25;;
65613;SDS011;52283;49.292;10.572;2022-12-07T02:52:43;24.58;;;12.90;;
65613;SDS011;52283;49.292;10.572;2022-12-07T02:55:10;27.27;;;13.57;;
65613;SDS011;52283;49.292;10.572;2022-12-07T02:57:44;24.50;;;12.30;;
65613;SDS011;52283;49.292;10.572;2022-12-07T03:00:21;24.45;;;12.30;;
65613;SDS011;52283;49.292;10.572;2022-12-07T03:02:50;26.90;;;13.48;;
65613;SDS011;52283;49.292;10.572;2022-12-07T03:05:28;24.90;;;12.07;;
65613;SDS011;52283;49.292;10.572;2022-12-07T03:08:06;21.80;;;10.95;;
65613;SDS011;52283;49.292;10.572;2022-12-07T03:10:40;27.10;;;13.35;;
65613;SDS011;52283;49.292;10.572;2022-12-07T03:13:16;26.65;;;13.27;;
65613;SDS011;52283;49.292;10.572;2022-12-07T03:15:52;26.80;;;12.38;;
65613;SDS011;52283;49.292;10.572;2022-12-07T03:18:25;24.42;;;12.50;;
65613;SDS011;52283;49.292;10.572;2022-12-07T03:20:56;23.00;;;12.85;;
65613;SDS011;52283;49.292;10.572;2022-12-07T03:23:27;24.20;;;11.68;;
65613;SDS011;52283;49.292;10.572;2022-12-07T03:25:56;29.60;;;14.55;;
65613;SDS011;52283;49.292;10.572;2022-12-07T03:28:26;28.75;;;13.75;;
65613;SDS011;52283;49.292;10.572;2022-12-07T03:30:59;26.55;;;13.00;;
65613;SDS011;52283;49.292;10.572;2022-12-07T03:33:30;24.95;;;12.63;;
65613;SDS011;52283;49.292;10.572;2022-12-07T03:36:03;23.08;;;11.63;;
65613;SDS011;52283;49.292;10.572;2022-12-07T03:38:35;25.67;;;12.60;;
65613;SDS011;52283;49.292;10.572;2022-12-07T03:41:07;24.75;;;11.68;;
65613;SDS011;52283;49.292;10.572;2022-12-07T03:43:36;25.25;;;12.15;;
65613;SDS011;52283;49.292;10.572;2022-12-07T03:46:06;26.92;;;12.90;;
65613;SDS011;52283;49.292;10.572;2022-12-07T03:48:44;27.23;;;12.60;;
65613;SDS011;52283;49.292;10.572;2022-12-07T03:51:19;27.48;;;13.35;;
65613;SDS011;52283;49.292;10.572;2022-12-07T03:53:52;29.42;;;14.25;;
65613;SDS011;52283;49.292;10.572;2022-12-07T03:56:24;29.05;;;13.40;;
65613;SDS011;52283;49.292;10.572;2022-12-07T03:58:54;27.87;;;13.80;;
65613;SDS011;52283;49.292;10.572;2022-12-07T04:01:23;30.38;;;12.98;;
65613;SDS011;52283;49.292;10.572;2022-12-07T04:03:50;32.47;;;13.32;;
65613;SDS011;52283;49.292;10.572;2022-12-07T04:06:17;32.15;;;13.40;;
65613;SDS011;52283;49.292;10.572;2022-12-07T04:08:44;33.03;;;13.45;;
65613;SDS011;52283;49.292;10.572;2022-12-07T04:11:10;32.97;;;15.23;;
65613;SDS011;52283;49.292;10.572;2022-12-07T04:13:37;33.80;;;13.65;;
65613;SDS011;52283;49.292;10.572;2022-12-07T04:16:17;30.53;;;13.97;;
65613;SDS011;52283;49.292;10.572;2022-12-07T04:18:45;28.55;;;13.57;;
65613;SDS011;52283;49.292;10.572;2022-12-07T04:21:11;33.63;;;15.10;;
65613;SDS011;52283;49.292;10.572;2022-12-07T04:23:38;37.88;;;17.13;;
65613;SDS011;52283;49.292;10.572;2022-12-07T04:26:04;30.77;;;14.75;;
65613;SDS011;52283;49.292;10.572;2022-12-07T04:28:31;32.92;;;16.10;;
65613;SDS011;52283;49.292;10.572;2022-12-07T04:30:57;29.17;;;14.00;;
65613;SDS011;52283;49.292;10.572;2022-12-07T04:33:24;37.60;;;16.33;;
65613;SDS011;52283;49.292;10.572;2022-12-07T04:35:51;33.50;;;16.13;;
65613;SDS011;52283;49.292;10.572;2022-12-07T04:38:19;31.75;;;15.48;;
65613;SDS011;52283;49.292;10.572;2022-12-07T04:40:45;38.25;;;17.10;;
65613;SDS011;52283;49.292;10.572;2022-12-07T04:43:12;40.50;;;17.10;;
65613;SDS011;52283;49.292;10.572;2022-12-07T04:45:38;33.60;;;15.32;;
65613;SDS011;52283;49.292;10.572;2022-12-07T04:48:05;34.10;;;15.77;;
65613;SDS011;52283;49.292;10.572;2022-12-07T04:50:31;38.08;;;17.25;;
65613;SDS011;52283;49.292;10.572;2022-12-07T04:52:59;35.92;;;17.75;;
65613;SDS011;52283;49.292;10.572;2022-12-07T04:55:26;38.92;;;17.52;;
65613;SDS011;52283;49.292;10.572;2022-12-07T04:57:52;36.30;;;17.10;;
65613;SDS011;52283;49.292;10.572;2022-12-07T05:00:19;35.60;;;16.50;;
65613;SDS011;52283;49.292;10.572;2022-12-07T05:02:45;38.78;;;17.15;;
65613;SDS011;52283;49.292;10.572;2022-12-07T05:05:12;35.30;;;16.17;;
65613;SDS011;52283;49.292;10.572;2022-12-07T05:07:38;41.00;;;17.77;;
65613;SDS011;52283;49.292;10.572;2022-12-07T05:10:07;40.60;;;17.90;;
65613;SDS011;52283;49.292;10.572;2022-12-07T05:12:34;44.78;;;18.48;;
65613;SDS011;52283;49.292;10.572;2022-12-07T05:15:00;42.08;;;18.95;;
65613;SDS011;52283;49.292;10.572;2022-12-07T05:17:27;46.00;;;17.48;;
65613;SDS011;52283;49.292;10.572;2022-12-07T05:19:53;43.05;;;17.15;;
65613;SDS011;52283;49.292;10.572;2022-12-07T05:22:20;45.67;;;18.42;;
65613;SDS011;52283;49.292;10.572;2022-12-07T05:24:46;41.13;;;18.48;;
65613;SDS011;52283;49.292;10.572;2022-12-07T05:27:14;38.13;;;16.60;;
65613;SDS011;52283;49.292;10.572;2022-12-07T05:29:40;41.80;;;16.98;;
65613;SDS011;52283;49.292;10.572;2022-12-07T05:32:07;45.67;;;17.80;;
65613;SDS011;52283;49.292;10.572;2022-12-07T05:34:33;43.55;;;18.25;;
65613;SDS011;52283;49.292;10.572;2022-12-07T05:37:00;41.60;;;18.35;;
65613;SDS011;52283;49.292;10.572;2022-12-07T05:39:26;44.25;;;17.98;;
65613;SDS011;52283;49.292;10.572;2022-12-07T05:41:53;45.83;;;18.17;;
65613;SDS011;52283;49.292;10.572;2022-12-07T05:44:39;42.35;;;15.77;;
65613;SDS011;52283;49.292;10.572;2022-12-07T05:47:06;43.88;;;18.38;;
65613;SDS011;52283;49.292;10.572;2022-12-07T05:49:33;42.53;;;18.17;;
65613;SDS011;52283;49.292;10.572;2022-12-07T05:51:59;40.75;;;16.60;;
65613;SDS011;52283;49.292;10.572;2022-12-07T05:54:26;38.85;;;16.38;;
65613;SDS011;52283;49.292;10.572;2022-12-07T05:56:52;37.38;;;15.45;;
65613;SDS011;52283;49.292;10.572;2022-12-07T05:59:19;39.30;;;16.15;;
65613;SDS011;52283;49.292;10.572;2022-12-07T06:01:48;42.28;;;16.20;;
65613;SDS011;52283;49.292;10.572;2022-12-07T06:04:15;41.10;;;15.77;;
65613;SDS011;52283;49.292;10.572;2022-12-07T06:06:42;34.92;;;15.77;;
65613;SDS011;52283;49.292;10.572;2022-12-07T06:09:08;38.92;;;16.77;;
65613;SDS011;52283;49.292;10.572;2022-12-07T06:11:35;38.78;;;16.80;;
65613;SDS011;52283;49.292;10.572;2022-12-07T06:14:18;37.92;;;13.88;;
65613;SDS011;52283;49.292;10.572;2022-12-07T06:16:45;35.95;;;16.10;;
65613;SDS011;52283;49.292;10.572;2022-12-07T06:19:13;36.58;;;17.48;;
65613;SDS011;52283;49.292;10.572;2022-12-07T06:21:39;33.75;;;15.25;;
65613;SDS011;52283;49.292;10.572;2022-12-07T06:24:06;32.40;;;13.98;;
65613;SDS011;52283;49.292;10.572;2022-12-07T06:26:33;37.88;;;16.00;;
65613;SDS011;52283;49.292;10.572;2022-12-07T06:28:59;31.50;;;14.48;;
65613;SDS011;52283;49.292;10.572;2022-12-07T06:31:26;37.20;;;17.73;;
65613;SDS011;52283;49.292;10.572;2022-12-07T06:33:56;41.60;;;18.02;;
65613;SDS011;52283;49.292;10.572;2022-12-07T06:36:25;38.05;;;17.33;;
65613;SDS011;52283;49.292;10.572;2022-12-07T06:38:51;38.03;;;15.02;;
65613;SDS011;52283;49.292;10.572;2022-12-07T06:41:18;37.10;;;16.70;;
65613;SDS011;52283;49.292;10.572;2022-12-07T06:43:44;32.78;;;14.00;;
65613;SDS011;52283;49.292;10.572;2022-12-07T06:46:12;32.67;;;14.25;;
65613;SDS011;52283;49.292;10.572;2022-12-07T06:48:39;30.45;;;13.25;;
65613;SDS011;52283;49.292;10.572;2022-12-07T06:51:05;32.92;;;14.15;;
65613;SDS011;52283;49.292;10.572;2022-12-07T06:53:33;33.20;;;15.02;;
65613;SDS011;52283;49.292;10.572;2022-12-07T06:55:59;32.40;;;15.02;;
65613;SDS011;52283;49.292;10.572;2022-12-07T06:58:26;28.23;;;14.02;;
65613;SDS011;52283;49.292;10.572;2022-12-07T07:00:53;32.70;;;15.50;;
65613;SDS011;52283;49.292;10.572;2022-12-07T07:03:19;34.08;;;15.57;;
65613;SDS011;52283;49.292;10.572;2022-12-07T07:05:46;39.05;;;16.33;;
65613;SDS011;52283;49.292;10.572;2022-12-07T07:08:12;34.60;;;17.23;;
65613;SDS011;52283;49.292;10.572;2022-12-07T07:10:40;38.15;;;16.27;;
65613;SDS011;52283;49.292;10.572;2022-12-07T07:13:07;33.63;;;15.45;;
65613;SDS011;52283;49.292;10.572;2022-12-07T07:15:34;34.47;;;15.35;;
65613;SDS011;52283;49.292;10.572;2022-12-07T07:18:03;32.38;;;14.88;;
65613;SDS011;52283;49.292;10.572;2022-12-07T07:20:29;36.35;;;15.90;;
65613;SDS011;52283;49.292;10.572;2022-12-07T07:22:56;35.60;;;17.20;;
65613;SDS011;52283;49.292;10.572;2022-12-07T07:25:22;36.30;;;17.30;;
65613;SDS011;52283;49.292;10.572;2022-12-07T07:27:50;40.92;;;17.38;;
65613;SDS011;52283;49.292;10.572;2022-12-07T07:30:17;32.47;;;16.02;;
65613;SDS011;52283;49.292;10.572;2022-12-07T07:32:43;37.70;;;16.80;;
65613;SDS011;52283;49.292;10.572;2022-12-07T07:35:10;34.22;;;16.13;;
65613;SDS011;52283;49.292;10.572;2022-12-07T07:37:36;32.95;;;16.13;;
65613;SDS011;52283;49.292;10.572;2022-12-07T07:40:03;31.35;;;15.52;;
65613;SDS011;52283;49.292;10.572;2022-12-07T07:42:30;36.13;;;17.20;;
65613;SDS011;52283;49.292;10.572;2022-12-07T07:44:58;35.70;;;15.57;;
65613;SDS011;52283;49.292;10.572;2022-12-07T07:47:24;36.85;;;16.45;;
65613;SDS011;52283;49.292;10.572;2022-12-07T07:49:51;35.97;;;16.50;;
65613;SDS011;52283;49.292;10.572;2022-12-07T07:52:17;34.80;;;15.48;;
65613;SDS011;52283;49.292;10.572;2022-12-07T07:54:44;33.45;;;14.18;;
65613;SDS011;52283;49.292;10.572;2022-12-07T07:57:10;33.60;;;15.25;;
65613;SDS011;52283;49.292;10.572;2022-12-07T07:59:37;32.28;;;14.13;;
65613;SDS011;52283;49.292;10.572;2022-12-07T08:02:05;33.08;;;14.52;;
65613;SDS011;52283;49.292;10.572;2022-12-07T08:04:31;34.40;;;16.08;;
65613;SDS011;52283;49.292;10.572;2022-12-07T08:06:57;30.52;;;15.13;;
65613;SDS011;52283;49.292;10.572;2022-12-07T08:09:24;33.08;;;15.65;;
65613;SDS011;52283;49.292;10.572;2022-12-07T08:11:50;33.80;;;14.30;;
65613;SDS011;52283;49.292;10.572;2022-12-07T08:14:17;31.40;;;14.27;;
65613;SDS011;52283;49.292;10.572;2022-12-07T08:16:43;29.90;;;14.50;;
65613;SDS011;52283;49.292;10.572;2022-12-07T08:19:11;36.58;;;15.55;;
65613;SDS011;52283;49.292;10.572;2022-12-07T08:21:37;27.73;;;13.48;;
65613;SDS011;52283;49.292;10.572;2022-12-07T08:24:04;34.33;;;15.43;;
65613;SDS011;52283;49.292;10.572;2022-12-07T08:26:31;31.15;;;14.15;;
65613;SDS011;52283;49.292;10.572;2022-12-07T08:28:58;34.92;;;14.38;;
65613;SDS011;52283;49.292;10.572;2022-12-07T08:31:25;28.00;;;12.23;;
65613;SDS011;52283;49.292;10.572;2022-12-07T08:33:52;24.73;;;11.88;;
65613;SDS011;52283;49.292;10.572;2022-12-07T08:36:20;28.05;;;13.05;;
65613;SDS011;52283;49.292;10.572;2022-12-07T08:38:47;22.60;;;11.73;;
65613;SDS011;52283;49.292;10.572;2022-12-07T08:41:14;24.05;;;10.82;;
65613;SDS011;52283;49.292;10.572;2022-12-07T08:43:41;22.30;;;11.40;;
65613;SDS011;52283;49.292;10.572;2022-12-07T08:46:09;25.02;;;11.23;;
65613;SDS011;52283;49.292;10.572;2022-12-07T08:48:39;22.65;;;11.70;;
65613;SDS011;52283;49.292;10.572;2022-12-07T08:51:08;23.98;;;10.98;;
65613;SDS011;52283;49.292;10.572;2022-12-07T08:53:37;25.33;;;11.93;;
65613;SDS011;52283;49.292;10.572;2022-12-07T08:56:05;24.77;;;12.73;;
65613;SDS011;52283;49.292;10.572;2022-12-07T08:58:33;26.92;;;12.77;;
65613;SDS011;52283;49.292;10.572;2022-12-07T09:01:01;24.65;;;12.43;;
65613;SDS011;52283;49.292;10.572;2022-12-07T09:03:27;28.40;;;14.68;;
65613;SDS011;52283;49.292;10.572;2022-12-07T09:05:54;21.52;;;11.73;;
65613;SDS011;52283;49.292;10.572;2022-12-07T09:08:21;32.75;;;18.10;;
65613;SDS011;52283;49.292;10.572;2022-12-07T09:10:50;22.67;;;11.25;;
65613;SDS011;52283;49.292;10.572;2022-12-07T09:13:17;24.10;;;12.18;;
65613;SDS011;52283;49.292;10.572;2022-12-07T09:15:43;20.52;;;11.07;;
65613;SDS011;52283;49.292;10.572;2022-12-07T09:18:10;17.33;;;9.65;;
65613;SDS011;52283;49.292;10.572;2022-12-07T09:20:36;23.20;;;11.52;;
65613;SDS011;52283;49.292;10.572;2022-12-07T09:23:04;16.10;;;9.90;;
65613;SDS011;52283;49.292;10.572;2022-12-07T09:25:31;19.52;;;10.38;;
65613;SDS011;52283;49.292;10.572;2022-12-07T09:27:59;15.25;;;9.15;;
65613;SDS011;52283;49.292;10.572;2022-12-07T09:30:26;19.92;;;9.25;;
65613;SDS011;52283;49.292;10.572;2022-12-07T09:32:53;13.05;;;7.75;;
65613;SDS011;52283;49.292;10.572;2022-12-07T09:35:20;16.83;;;9.02;;
65613;SDS011;52283;49.292;10.572;2022-12-07T09:37:47;16.92;;;8.98;;
65613;SDS011;52283;49.292;10.572;2022-12-07T09:40:14;13.80;;;8.27;;
65613;SDS011;52283;49.292;10.572;2022-12-07T09:42:43;15.52;;;7.63;;
65613;SDS011;52283;49.292;10.572;2022-12-07T09:45:13;13.93;;;7.38;;
65613;SDS011;52283;49.292;10.572;2022-12-07T09:47:42;17.13;;;8.80;;
65613;SDS011;52283;49.292;10.572;2022-12-07T09:50:12;17.52;;;8.73;;
65613;SDS011;52283;49.292;10.572;2022-12-07T09:52:40;16.95;;;9.32;;
65613;SDS011;52283;49.292;10.572;2022-12-07T09:55:09;16.88;;;9.13;;
65613;SDS011;52283;49.292;10.572;2022-12-07T09:57:37;16.42;;;9.30;;
65613;SDS011;52283;49.292;10.572;2022-12-07T10:00:06;15.23;;;8.02;;
65613;SDS011;52283;49.292;10.572;2022-12-07T10:02:40;19.58;;;10.73;;
65613;SDS011;52283;49.292;10.572;2022-12-07T10:05:10;16.13;;;9.98;;
65613;SDS011;52283;49.292;10.572;2022-12-07T10:07:39;18.58;;;10.02;;
65613;SDS011;52283;49.292;10.572;2022-12-07T10:10:09;16.02;;;8.43;;
65613;SDS011;52283;49.292;10.572;2022-12-07T10:15:40;15.27;;;8.05;;
65613;SDS011;52283;49.292;10.572;2022-12-07T10:18:21;20.67;;;10.73;;
65613;SDS011;52283;49.292;10.572;2022-12-07T10:20:59;25.63;;;10.98;;
65613;SDS011;52283;49.292;10.572;2022-12-07T10:23:28;22.00;;;11.32;;
65613;SDS011;52283;49.292;10.572;2022-12-07T10:25:54;30.25;;;11.73;;
65613;SDS011;52283;49.292;10.572;2022-12-07T10:28:21;20.30;;;9.57;;
65613;SDS011;52283;49.292;10.572;2022-12-07T10:30:49;21.15;;;10.82;;
65613;SDS011;52283;49.292;10.572;2022-12-07T10:33:28;21.50;;;11.23;;
65613;SDS011;52283;49.292;10.572;2022-12-07T10:35:56;17.50;;;9.82;;
65613;SDS011;52283;49.292;10.572;2022-12-07T10:38:24;23.25;;;10.30;;
65613;SDS011;52283;49.292;10.572;2022-12-07T10:40:54;21.83;;;10.68;;
65613;SDS011;52283;49.292;10.572;2022-12-07T10:43:29;16.15;;;9.70;;
65613;SDS011;52283;49.292;10.572;2022-12-07T10:46:14;19.02;;;9.40;;
65613;SDS011;52283;49.292;10.572;2022-12-07T10:48:58;16.52;;;9.50;;
65613;SDS011;52283;49.292;10.572;2022-12-07T10:51:35;22.55;;;10.82;;
65613;SDS011;52283;49.292;10.572;2022-12-07T10:54:10;19.40;;;8.73;;
65613;SDS011;52283;49.292;10.572;2022-12-07T10:56:46;21.63;;;10.45;;
65613;SDS011;52283;49.292;10.572;2022-12-07T10:59:41;23.15;;;12.23;;
65613;SDS011;52283;49.292;10.572;2022-12-07T11:02:44;18.90;;;10.48;;
65613;SDS011;52283;49.292;10.572;2022-12-07T11:05:27;22.70;;;11.40;;
65613;SDS011;52283;49.292;10.572;2022-12-07T11:08:02;18.98;;;9.73;;
65613;SDS011;52283;49.292;10.572;2022-12-07T11:10:38;22.05;;;10.82;;
65613;SDS011;52283;49.292;10.572;2022-12-07T11:13:15;27.33;;;11.68;;
65613;SDS011;52283;49.292;10.572;2022-12-07T11:16:00;20.45;;;9.80;;
65613;SDS011;52283;49.292;10.572;2022-12-07T11:18:34;21.67;;;10.70;;
65613;SDS011;52283;49.292;10.572;2022-12-07T11:21:13;19.65;;;11.80;;
65613;SDS011;52283;49.292;10.572;2022-12-07T11:23:48;19.95;;;11.73;;
65613;SDS011;52283;49.292;10.572;2022-12-07T11:26:22;20.20;;;10.52;;
65613;SDS011;52283;49.292;10.572;2022-12-07T11:29:03;21.88;;;10.85;;
65613;SDS011;52283;49.292;10.572;2022-12-07T11:31:47;23.10;;;12.02;;
65613;SDS011;52283;49.292;10.572;2022-12-07T11:34:23;26.63;;;12.82;;
65613;SDS011;52283;49.292;10.572;2022-12-07T11:36:59;28.98;;;13.68;;
65613;SDS011;52283;49.292;10.572;2022-12-07T11:39:30;25.85;;;12.95;;
65613;SDS011;52283;49.292;10.572;2022-12-07T11:42:02;28.15;;;13.73;;
65613;SDS011;52283;49.292;10.572;2022-12-07T11:44:33;27.98;;;15.48;;
65613;SDS011;52283;49.292;10.572;2022-12-07T11:47:06;30.63;;;13.80;;
65613;SDS011;52283;49.292;10.572;2022-12-07T11:49:40;23.00;;;12.23;;
65613;SDS011;52283;49.292;10.572;2022-12-07T11:52:13;23.17;;;11.95;;
65613;SDS011;52283;49.292;10.572;2022-12-07T11:54:45;22.00;;;11.85;;
65613;SDS011;52283;49.292;10.572;2022-12-07T11:57:15;24.60;;;12.93;;
65613;SDS011;52283;49.292;10.572;2022-12-07T11:59:47;31.10;;;14.02;;
65613;SDS011;52283;49.292;10.572;2022-12-07T12:02:19;29.83;;;13.35;;
65613;SDS011;52283;49.292;10.572;2022-12-07T12:04:51;32.33;;;14.88;;
65613;SDS011;52283;49.292;10.572;2022-12-07T12:07:24;28.20;;;14.88;;
65613;SDS011;52283;49.292;10.572;2022-12-07T12:09:53;34.50;;;14.82;;
65613;SDS011;52283;49.292;10.572;2022-12-07T12:12:29;35.38;;;15.52;;
65613;SDS011;52283;49.292;10.572;2022-12-07T12:15:23;28.30;;;14.23;;
65613;SDS011;52283;49.292;10.572;2022-12-07T12:20:35;43.17;;;18.58;;
65613;SDS011;52283;49.292;10.572;2022-12-07T12:23:09;36.17;;;16.15;;
65613;SDS011;52283;49.292;10.572;2022-12-07T12:25:41;39.00;;;16.80;;
65613;SDS011;52283;49.292;10.572;2022-12-07T12:28:18;40.85;;;15.50;;
65613;SDS011;52283;49.292;10.572;2022-12-07T12:31:04;31.30;;;15.20;;
65613;SDS011;52283;49.292;10.572;2022-12-07T12:33:33;51.45;;;21.70;;
65613;SDS011;52283;49.292;10.572;2022-12-07T12:36:18;33.00;;;15.88;;
65613;SDS011;52283;49.292;10.572;2022-12-07T12:39:07;39.35;;;18.92;;
65613;SDS011;52283;49.292;10.572;2022-12-07T12:41:51;34.30;;;15.88;;
65613;SDS011;52283;49.292;10.572;2022-12-07T12:47:53;36.92;;;15.80;;
65613;SDS011;52283;49.292;10.572;2022-12-07T12:50:23;37.10;;;15.93;;
65613;SDS011;52283;49.292;10.572;2022-12-07T12:52:55;40.03;;;20.85;;
65613;SDS011;52283;49.292;10.572;2022-12-07T12:55:43;35.20;;;18.27;;
65613;SDS011;52283;49.292;10.572;2022-12-07T12:58:33;33.03;;;17.20;;
65613;SDS011;52283;49.292;10.572;2022-12-07T13:04:14;29.90;;;15.45;;
65613;SDS011;52283;49.292;10.572;2022-12-07T13:06:47;40.90;;;18.85;;
65613;SDS011;52283;49.292;10.572;2022-12-07T13:09:17;32.85;;;16.63;;
65613;SDS011;52283;49.292;10.572;2022-12-07T13:11:48;36.25;;;16.23;;
65613;SDS011;52283;49.292;10.572;2022-12-07T13:14:41;36.50;;;18.60;;
65613;SDS011;52283;49.292;10.572;2022-12-07T13:22:48;28.98;;;14.77;;
65613;SDS011;52283;49.292;10.572;2022-12-07T13:28:09;31.58;;;14.52;;
65613;SDS011;52283;49.292;10.572;2022-12-07T13:30:45;31.27;;;12.80;;
65613;SDS011;52283;49.292;10.572;2022-12-07T13:33:13;24.67;;;13.25;;
65613;SDS011;52283;49.292;10.572;2022-12-07T13:35:43;33.63;;;14.85;;
65613;SDS011;52283;49.292;10.572;2022-12-07T13:38:16;31.52;;;15.15;;
65613;SDS011;52283;49.292;10.572;2022-12-07T13:41:11;26.52;;;13.60;;
65613;SDS011;52283;49.292;10.572;2022-12-07T13:43:44;26.77;;;13.85;;
65613;SDS011;52283;49.292;10.572;2022-12-07T13:46:13;27.75;;;12.18;;
65613;SDS011;52283;49.292;10.572;2022-12-07T13:48:43;23.75;;;12.13;;
65613;SDS011;52283;49.292;10.572;2022-12-07T13:51:22;22.65;;;10.68;;
65613;SDS011;52283;49.292;10.572;2022-12-07T13:53:50;28.35;;;14.35;;
65613;SDS011;52283;49.292;10.572;2022-12-07T13:56:21;20.90;;;11.30;;
65613;SDS011;52283;49.292;10.572;2022-12-07T13:58:53;25.58;;;12.07;;
65613;SDS011;52283;49.292;10.572;2022-12-07T14:01:21;26.45;;;14.43;;
65613;SDS011;52283;49.292;10.572;2022-12-07T14:03:47;25.02;;;12.38;;
65613;SDS011;52283;49.292;10.572;2022-12-07T14:06:15;29.15;;;13.43;;
65613;SDS011;52283;49.292;10.572;2022-12-07T14:08:43;32.40;;;14.77;;
65613;SDS011;52283;49.292;10.572;2022-12-07T14:11:12;25.88;;;13.00;;
65613;SDS011;52283;49.292;10.572;2022-12-07T14:13:45;22.17;;;11.32;;
65613;SDS011;52283;49.292;10.572;2022-12-07T14:16:24;23.85;;;11.93;;
65613;SDS011;52283;49.292;10.572;2022-12-07T14:18:54;25.27;;;14.40;;
65613;SDS011;52283;49.292;10.572;2022-12-07T14:21:22;20.92;;;12.02;;
65613;SDS011;52283;49.292;10.572;2022-12-07T14:26:45;25.95;;;11.90;;
65613;SDS011;52283;49.292;10.572;2022-12-07T14:29:19;23.08;;;10.88;;
65613;SDS011;52283;49.292;10.572;2022-12-07T14:31:49;25.52;;;13.23;;
65613;SDS011;52283;49.292;10.572;2022-12-07T14:34:15;23.77;;;11.20;;
65613;SDS011;52283;49.292;10.572;2022-12-07T14:36:42;22.92;;;11.70;;
65613;SDS011;52283;49.292;10.572;2022-12-07T14:39:08;22.42;;;11.40;;
65613;SDS011;52283;49.292;10.572;2022-12-07T14:41:35;24.65;;;11.20;;
65613;SDS011;52283;49.292;10.572;2022-12-07T14:44:17;23.00;;;11.55;;
65613;SDS011;52283;49.292;10.572;2022-12-07T14:46:45;26.55;;;12.63;;
65613;SDS011;52283;49.292;10.572;2022-12-07T14:49:13;27.38;;;11.38;;
65613;SDS011;52283;49.292;10.572;2022-12-07T14:51:40;27.15;;;12.20;;
65613;SDS011;52283;49.292;10.572;2022-12-07T14:54:11;23.10;;;12.82;;
65613;SDS011;52283;49.292;10.572;2022-12-07T14:56:41;24.13;;;11.15;;
65613;SDS011;52283;49.292;10.572;2022-12-07T14:59:08;28.58;;;13.57;;
65613;SDS011;52283;49.292;10.572;2022-12-07T15:01:35;24.85;;;13.05;;